createdAt,value
2017-02-22T00:02:12.673Z,80.15
2017-02-22T00:04:36.149Z,79.57
2017-02-22T00:06:37.345Z,79.67
2017-02-22T00:09:00.883Z,80.53
2017-02-22T00:11:10.526Z,80.96
2017-02-22T00:13:12.204Z,80.05
2017-02-22T00:15:21.866Z,81.15
2017-02-22T00:17:45.378Z,80.77
2017-02-22T00:20:08.859Z,80.15
2017-02-22T00:22:18.540Z,80.15
2017-02-22T00:24:42.054Z,81.01
2017-02-22T00:27:05.531Z,81.63
2017-02-22T00:29:28.996Z,80.62
2017-02-22T00:31:52.470Z,80.62
2017-02-22T00:34:15.870Z,81.01
2017-02-22T00:36:39.290Z,81.73
2017-02-22T00:39:02.758Z,82.59
2017-02-22T00:41:26.247Z,81.54
2017-02-22T00:43:49.692Z,82.4
2017-02-22T00:46:13.164Z,82.34
2017-02-22T00:48:36.639Z,80.91
2017-02-22T00:50:51.699Z,81.67
2017-02-22T00:53:15.162Z,81.48
2017-02-22T00:55:08.242Z,82.15
2017-02-22T00:57:31.687Z,82.43
2017-02-22T00:59:55.149Z,82.34
2017-02-22T01:02:10.222Z,82.11
2017-02-22T01:04:33.694Z,81.67
2017-02-22T01:06:57.155Z,82.15
2017-02-22T01:09:20.618Z,81.2
2017-02-22T01:11:35.697Z,82.97
2017-02-22T01:13:59.153Z,82.97
2017-02-22T01:17:58.389Z,83.44
2017-02-22T01:21:49.186Z,83.73
2017-02-22T01:24:12.669Z,83.25
2017-02-22T01:26:36.132Z,82.97
2017-02-22T01:30:26.949Z,82.49
2017-02-22T01:32:50.416Z,82.49
2017-02-22T01:35:13.882Z,82.01
2017-02-22T01:37:37.343Z,82.3
2017-02-22T01:39:52.419Z,82.59
2017-02-22T01:42:15.881Z,82.78
2017-02-22T01:44:25.550Z,83.06
2017-02-22T01:46:48.995Z,83.06
2017-02-22T01:49:12.462Z,82.4
2017-02-22T01:51:35.944Z,83.06
2017-02-22T01:53:59.327Z,83.92
2017-02-22T01:56:22.706Z,84.49
2017-02-22T01:58:46.035Z,83.83
2017-02-22T02:01:09.456Z,83.92
2017-02-22T02:03:32.757Z,82.97
2017-02-22T02:05:56.128Z,83.35
2017-02-22T02:08:19.610Z,83.73
2017-02-22T02:10:42.958Z,82.87
2017-02-22T02:13:06.381Z,83.06
2017-02-22T02:15:29.726Z,84.59
2017-02-22T02:17:44.706Z,84.49
2017-02-22T02:20:08.032Z,83.44
2017-02-22T02:22:31.395Z,84.01
2017-02-22T02:24:54.757Z,83.64
2017-02-22T02:27:18.223Z,83.35
2017-02-22T02:29:41.668Z,84.11
2017-02-22T02:32:05.168Z,82.49
2017-02-22T02:34:20.223Z,82.78
2017-02-22T02:36:35.296Z,83.54
2017-02-22T02:38:58.762Z,83.16
2017-02-22T02:41:22.231Z,83.35
2017-02-22T02:43:45.693Z,83.25
2017-02-22T02:46:00.661Z,82.97
2017-02-22T02:48:24.123Z,83.06
2017-02-22T02:50:47.597Z,84.4
2017-02-22T02:53:10.951Z,83.44
2017-02-22T02:55:34.426Z,84.69
2017-02-22T02:57:57.901Z,85.35
2017-02-22T02:59:59.081Z,84.88
2017-02-22T03:02:22.525Z,84.88
2017-02-22T03:04:45.976Z,84.49
2017-02-22T03:07:09.444Z,84.97
2017-02-22T03:09:32.802Z,85.06
2017-02-22T03:11:56.172Z,85.25
2017-02-22T03:14:19.658Z,85.16
2017-02-22T03:16:43.119Z,84.88
2017-02-22T03:18:58.177Z,85.25
2017-02-22T03:21:13.150Z,84.49
2017-02-22T03:23:36.614Z,84.4
2017-02-22T03:26:00.078Z,83.73
2017-02-22T03:28:23.547Z,83.92
2017-02-22T03:30:47.018Z,84.59
2017-02-22T03:33:10.383Z,84.49
2017-02-22T03:35:33.743Z,83.64
2017-02-22T03:37:43.398Z,84.59
2017-02-22T03:39:58.453Z,84.88
2017-02-22T03:42:13.427Z,84.49
2017-02-22T03:44:28.383Z,84.78
2017-02-22T03:46:43.459Z,84.2
2017-02-22T03:48:58.423Z,83.25
2017-02-22T03:51:21.917Z,83.92
2017-02-22T03:53:45.258Z,85.25
2017-02-22T03:56:08.654Z,86.36
2017-02-22T03:58:31.995Z,85.83
2017-02-22T04:00:47.069Z,86.65
2017-02-22T04:03:10.437Z,85.83
2017-02-22T04:05:33.800Z,85.35
2017-02-22T04:07:57.266Z,84.59
2017-02-22T04:10:20.725Z,84.97
2017-02-22T04:12:44.200Z,84.97
2017-02-22T04:15:07.667Z,84.92
2017-02-22T04:17:31.139Z,85.6
2017-02-22T04:19:54.602Z,85.83
2017-02-22T04:22:17.961Z,84.69
2017-02-22T04:24:41.429Z,84.97
2017-02-22T04:26:56.505Z,84.49
2017-02-22T04:29:19.986Z,84.69
2017-02-22T04:31:43.452Z,84.2
2017-02-22T04:34:06.823Z,84.3
2017-02-22T04:36:30.182Z,84.49
2017-02-22T04:38:53.635Z,84.88
2017-02-22T04:41:17.008Z,83.73
2017-02-22T04:43:40.480Z,84.4
2017-02-22T04:45:50.127Z,85.06
2017-02-22T04:48:13.580Z,85.54
2017-02-22T04:50:20.246Z,85.73
2017-02-22T04:52:36.248Z,85.78
2017-02-22T04:54:46.404Z,85.88
2017-02-22T04:57:09.869Z,86.26
2017-02-22T04:59:11.013Z,86.36
2017-02-22T05:01:34.475Z,85.21
2017-02-22T05:03:57.941Z,85.69
2017-02-22T05:06:21.302Z,85.6
2017-02-22T05:08:44.672Z,85.73
2017-02-22T05:11:08.034Z,85.6
2017-02-22T05:13:31.450Z,85.6
2017-02-22T05:15:46.373Z,85.6
2017-02-22T05:18:09.733Z,85.31
2017-02-22T05:20:24.702Z,84.59
2017-02-22T05:22:48.068Z,85.12
2017-02-22T05:25:11.459Z,84.64
2017-02-22T05:27:34.819Z,83.83
2017-02-22T05:29:58.155Z,83.73
2017-02-22T05:32:21.637Z,83.06
2017-02-22T05:34:45.117Z,83.78
2017-02-22T05:37:08.472Z,83.92
2017-02-22T05:39:31.826Z,83.83
2017-02-22T05:41:55.195Z,83.25
2017-02-22T05:44:18.674Z,82.97
2017-02-22T05:46:42.128Z,83.25
2017-02-22T05:48:57.193Z,82.87
2017-02-22T05:51:20.659Z,83.73
2017-02-22T05:53:44.029Z,84.26
2017-02-22T05:56:07.389Z,84.59
2017-02-22T05:58:22.387Z,84.69
2017-02-22T06:00:45.756Z,83.25
2017-02-22T06:03:09.124Z,84.64
2017-02-22T06:05:32.499Z,84.49
2017-02-22T06:07:55.867Z,85.45
2017-02-22T06:10:19.204Z,84.4
2017-02-22T06:12:42.672Z,85.16
2017-02-22T06:15:06.018Z,84.88
2017-02-22T06:17:07.694Z,85.6
2017-02-22T06:19:31.092Z,86.93
2017-02-22T06:21:54.476Z,87.12
2017-02-22T06:25:54.037Z,85.41
2017-02-22T06:28:17.520Z,84.55
2017-02-22T06:30:41.042Z,83.73
2017-02-22T06:33:11.118Z,83.88
2017-02-22T06:35:35.806Z,82.45
2017-02-22T06:37:59.107Z,82.17
2017-02-22T06:40:22.483Z,81.12
2017-02-22T06:42:46.354Z,80.3
2017-02-22T06:45:09.759Z,80.11
2017-02-22T06:47:33.130Z,79.53
2017-02-22T06:49:56.589Z,79.15
2017-02-22T06:52:11.621Z,79.91
2017-02-22T06:54:35.018Z,80.11
2017-02-22T06:56:58.388Z,82.17
2017-02-22T06:59:21.768Z,82.83
2017-02-22T07:01:45.198Z,83.73
2017-02-22T07:04:08.540Z,83.31
2017-02-22T07:06:23.525Z,83.21
2017-02-22T07:08:46.866Z,82.49
2017-02-22T07:11:10.158Z,82.2
2017-02-22T07:13:33.563Z,82.11
2017-02-22T07:15:56.832Z,82.01
2017-02-22T07:18:11.832Z,82.2
2017-02-22T07:20:35.373Z,81.35
2017-02-22T07:22:58.690Z,80.58
2017-02-22T07:25:22.158Z,80.2
2017-02-22T07:27:46.914Z,80.3
2017-02-22T07:30:10.298Z,79.35
2017-02-22T07:32:33.663Z,79.82
2017-02-22T07:34:56.997Z,79.53
2017-02-22T07:37:20.437Z,78.23
2017-02-22T07:39:43.852Z,78.01
2017-02-22T07:42:07.815Z,76.81
2017-02-22T07:44:33.345Z,76.81
2017-02-22T07:46:57.072Z,76.62
2017-02-22T07:49:20.402Z,76.01
2017-02-22T07:51:43.885Z,75.66
2017-02-22T07:54:07.988Z,75.09
2017-02-22T07:56:31.459Z,74.71
2017-02-22T07:58:54.882Z,71.72
2017-02-22T08:01:18.347Z,68.96
2017-02-22T08:03:41.836Z,69.05
2017-02-22T08:06:05.349Z,69.78
2017-02-22T08:08:28.873Z,69.68
2017-02-22T08:10:52.329Z,69.59
2017-02-22T08:13:15.882Z,69.78
2017-02-22T08:15:17.617Z,69.87
2017-02-22T08:17:32.737Z,70.89
2017-02-22T08:19:56.260Z,71.84
2017-02-22T08:22:19.796Z,71.56
2017-02-22T08:24:43.226Z,70.26
2017-02-22T08:27:06.704Z,69.31
2017-02-22T08:29:08.359Z,69.31
2017-02-22T08:31:31.825Z,68.44
2017-02-22T08:33:55.348Z,67.71
2017-02-22T08:36:18.829Z,68.16
2017-02-22T08:38:20.522Z,67.68
2017-02-22T08:40:44.060Z,68.16
2017-02-22T08:43:07.584Z,68.44
2017-02-22T08:45:31.106Z,68.82
2017-02-22T08:47:54.585Z,69.31
2017-02-22T08:50:18.101Z,68.79
2017-02-22T08:52:41.607Z,68.44
2017-02-22T08:55:05.045Z,68.41
2017-02-22T08:57:28.466Z,68.32
2017-02-22T08:59:51.912Z,68.26
2017-02-22T09:02:15.404Z,66.19
2017-02-22T09:04:38.865Z,66.35
2017-02-22T09:07:02.412Z,65.61
2017-02-22T09:09:25.882Z,66.28
2017-02-22T09:11:49.385Z,66.19
2017-02-22T09:14:12.869Z,65.8
2017-02-22T09:16:36.341Z,65.71
2017-02-22T09:18:59.833Z,64.75
2017-02-22T09:21:23.322Z,63.99
2017-02-22T09:23:46.953Z,63.73
2017-02-22T09:26:10.443Z,63.45
2017-02-22T09:28:33.982Z,63.83
2017-02-22T09:30:57.511Z,63.45
2017-02-22T09:33:21.190Z,63.39
2017-02-22T09:35:44.820Z,64.09
2017-02-22T09:38:08.355Z,64.85
2017-02-22T09:40:31.874Z,63.54
2017-02-22T09:42:55.492Z,64.18
2017-02-22T09:45:19.121Z,63.89
2017-02-22T09:47:35.377Z,63.51
2017-02-22T09:49:58.890Z,63.42
2017-02-22T09:52:22.453Z,63.26
2017-02-22T09:54:45.989Z,62.3
2017-02-22T09:57:09.812Z,62.78
2017-02-22T09:59:33.489Z,63.32
2017-02-22T10:01:57.067Z,63.51
2017-02-22T10:04:20.577Z,63.32
2017-02-22T10:06:44.154Z,62.87
2017-02-22T10:09:07.716Z,63.13
2017-02-22T10:11:31.268Z,63.13
2017-02-22T10:13:55.116Z,62.94
2017-02-22T10:16:19.691Z,63.13
2017-02-22T10:18:34.841Z,62.97
2017-02-22T10:20:58.530Z,62.84
2017-02-22T10:23:23.078Z,62.49
2017-02-22T10:25:46.632Z,62.27
2017-02-22T10:28:10.242Z,63.6
2017-02-22T10:30:34.816Z,63.32
2017-02-22T10:32:58.368Z,64.34
2017-02-22T10:35:21.990Z,64.15
2017-02-22T10:37:46.488Z,64.43
2017-02-22T10:40:09.959Z,64.43
2017-02-22T10:42:34.454Z,64.05
2017-02-22T10:44:57.942Z,63.42
2017-02-22T10:47:13.039Z,63.96
2017-02-22T10:49:36.563Z,63.99
2017-02-22T10:52:00.083Z,63.39
2017-02-22T10:54:23.805Z,63.42
2017-02-22T10:56:47.163Z,62.94
2017-02-22T10:59:10.645Z,63.1
2017-02-22T11:01:34.336Z,61.69
2017-02-22T11:03:57.874Z,61.13
2017-02-22T11:06:21.387Z,61.41
2017-02-22T11:08:44.883Z,61.13
2017-02-22T11:11:08.439Z,60.84
2017-02-22T11:13:32.040Z,61.22
2017-02-22T11:15:55.565Z,60.64
2017-02-22T11:18:19.151Z,61.25
2017-02-22T11:20:42.724Z,60.3
2017-02-22T11:23:06.210Z,60.3
2017-02-22T11:25:29.807Z,59.88
2017-02-22T11:27:53.496Z,60.93
2017-02-22T11:30:17.079Z,60.3
2017-02-22T11:32:40.791Z,60.39
2017-02-22T11:35:04.298Z,60.74
2017-02-22T11:37:27.927Z,61.16
2017-02-22T11:39:43.070Z,60.77
2017-02-22T11:42:06.702Z,61.69
2017-02-22T11:44:30.178Z,61.25
2017-02-22T11:46:54.723Z,60.77
2017-02-22T11:49:18.340Z,60.3
2017-02-22T11:51:43.940Z,59.47
2017-02-22T11:54:07.518Z,59.72
2017-02-22T11:56:31.019Z,60.58
2017-02-22T11:58:54.581Z,60.3
2017-02-22T12:01:18.190Z,60.1
2017-02-22T12:03:41.693Z,60.77
2017-02-22T12:06:05.234Z,59.72
2017-02-22T12:08:28.856Z,58.7
2017-02-22T12:10:30.121Z,59.44
2017-02-22T12:12:53.605Z,59.44
2017-02-22T12:15:17.444Z,60.58
2017-02-22T12:17:41.064Z,60.55
2017-02-22T12:20:04.622Z,60.84
2017-02-22T12:24:04.449Z,59.24
2017-02-22T12:26:28.006Z,58.29
2017-02-22T12:28:51.639Z,58.76
2017-02-22T12:32:51.598Z,59.24
2017-02-22T12:35:15.304Z,58.7
2017-02-22T12:37:38.928Z,59.05
2017-02-22T12:40:02.470Z,59.53
2017-02-22T12:42:26.112Z,59.5
2017-02-22T12:44:50.496Z,59.53
2017-02-22T12:47:00.628Z,60.07
2017-02-22T12:49:24.431Z,59.98
2017-02-22T12:51:48.044Z,59.69
2017-02-22T12:54:11.736Z,59.69
2017-02-22T12:56:36.322Z,60.27
2017-02-22T12:58:59.911Z,60.07
2017-02-22T13:03:01.388Z,60.17
2017-02-22T13:05:26.078Z,59.12
2017-02-22T13:07:50.663Z,60.64
2017-02-22T13:10:14.291Z,59.78
2017-02-22T13:12:38.031Z,59.88
2017-02-22T13:15:03.264Z,59.98
2017-02-22T13:17:27.853Z,60.55
2017-02-22T13:19:52.220Z,61.22
2017-02-22T13:22:18.761Z,60.27
2017-02-22T13:24:42.394Z,60.61
2017-02-22T13:27:06.261Z,60.74
2017-02-22T13:29:30.115Z,62.34
2017-02-22T13:31:53.720Z,62.52
2017-02-22T13:34:08.874Z,61.29
2017-02-22T13:36:32.482Z,61.47
2017-02-22T13:38:56.015Z,61.95
2017-02-22T13:41:21.640Z,61.38
2017-02-22T13:43:45.216Z,62.43
2017-02-22T13:46:08.957Z,61.86
2017-02-22T13:48:32.885Z,61.76
2017-02-22T13:50:56.460Z,62.15
2017-02-22T13:53:19.979Z,63.16
2017-02-22T13:55:44.231Z,63.26
2017-02-22T13:58:07.773Z,63.54
2017-02-22T14:00:31.316Z,63.35
2017-02-22T14:02:54.807Z,64.4
2017-02-22T14:05:18.252Z,63.64
2017-02-22T14:07:41.819Z,63.92
2017-02-22T14:10:05.720Z,64.02
2017-02-22T14:12:29.087Z,63.64
2017-02-22T14:14:52.755Z,64.02
2017-02-22T14:17:17.213Z,63.92
2017-02-22T14:19:40.687Z,64.12
2017-02-22T14:22:04.088Z,63.64
2017-02-22T14:24:27.590Z,63.35
2017-02-22T14:26:50.977Z,63.64
2017-02-22T14:29:15.831Z,64.02
2017-02-22T14:31:39.446Z,63.73
2017-02-22T14:34:02.906Z,64.02
2017-02-22T14:36:26.347Z,64.5
2017-02-22T14:38:41.470Z,64.12
2017-02-22T14:41:04.992Z,63.48
2017-02-22T14:43:28.408Z,63.39
2017-02-22T14:45:51.843Z,64.21
2017-02-22T14:48:15.583Z,64.59
2017-02-22T14:50:39.292Z,64.59
2017-02-22T14:53:04.140Z,64.02
2017-02-22T14:55:27.512Z,63.48
2017-02-22T14:57:51.219Z,64.5
2017-02-22T15:00:14.852Z,65.07
2017-02-22T15:02:39.428Z,64.88
2017-02-22T15:05:03.041Z,65.55
2017-02-22T15:07:26.518Z,65.64
2017-02-22T15:09:50.135Z,65.36
2017-02-22T15:12:13.625Z,66.41
2017-02-22T15:14:37.084Z,65.36
2017-02-22T15:17:00.582Z,64.72
2017-02-22T15:19:24.121Z,65.36
2017-02-22T15:21:47.670Z,65.93
2017-02-22T15:24:11.077Z,66.31
2017-02-22T15:26:34.652Z,66.56
2017-02-22T15:28:59.245Z,66.85
2017-02-22T15:31:22.701Z,67.52
2017-02-22T15:33:46.108Z,67.23
2017-02-22T15:36:09.571Z,67.99
2017-02-22T15:38:33.249Z,66.6
2017-02-22T15:40:56.752Z,67.52
2017-02-22T15:43:20.172Z,66.41
2017-02-22T15:45:43.622Z,67.42
2017-02-22T15:48:07.193Z,67.61
2017-02-22T15:50:30.685Z,66.47
2017-02-22T15:52:54.119Z,67.23
2017-02-22T15:55:17.482Z,66.56
2017-02-22T15:57:41.089Z,66.56
2017-02-22T16:00:04.698Z,66.28
2017-02-22T16:02:28.323Z,66.56
2017-02-22T16:04:41.903Z,66.94
2017-02-22T16:07:05.483Z,67.04
2017-02-22T16:09:29.057Z,66.94
2017-02-22T16:11:53.020Z,66.56
2017-02-22T16:14:19.670Z,66.18
2017-02-22T16:16:43.625Z,66.75
2017-02-22T16:19:06.947Z,66.18
2017-02-22T16:21:30.466Z,66.75
2017-02-22T16:23:55.144Z,66.75
2017-02-22T16:27:54.723Z,67.61
2017-02-22T16:30:18.339Z,67.58
2017-02-22T16:32:33.350Z,67.33
2017-02-22T16:34:57.653Z,67.96
2017-02-22T16:37:21.049Z,68.24
2017-02-22T16:39:44.411Z,67.96
2017-02-22T16:41:59.366Z,67.68
2017-02-22T16:44:22.747Z,67.04
2017-02-22T16:46:46.119Z,67.96
2017-02-22T16:49:09.464Z,68.05
2017-02-22T16:51:11.107Z,67.86
2017-02-22T16:53:34.587Z,68.05
2017-02-22T16:55:59.183Z,67.86
2017-02-22T16:58:22.523Z,68.15
2017-02-22T17:00:45.956Z,68.24
2017-02-22T17:03:09.321Z,68.53
2017-02-22T17:05:34.554Z,68.15
2017-02-22T17:07:57.873Z,68.53
2017-02-22T17:10:22.256Z,68.34
2017-02-22T17:12:45.870Z,69.01
2017-02-22T17:15:09.232Z,68.53
2017-02-22T17:17:32.601Z,68.24
2017-02-22T17:19:56.043Z,67.86
2017-02-22T17:22:10.976Z,68.05
2017-02-22T17:24:34.516Z,68.34
2017-02-22T17:26:57.814Z,67.96
2017-02-22T17:29:21.242Z,68.34
2017-02-22T17:31:44.558Z,68.34
2017-02-22T17:34:07.922Z,68.24
2017-02-22T17:36:31.499Z,68.53
2017-02-22T17:38:55.298Z,68.82
2017-02-22T17:41:18.983Z,69.01
2017-02-22T17:43:42.557Z,69.01
2017-02-22T17:46:06.054Z,68.24
2017-02-22T17:48:30.039Z,68.63
2017-02-22T17:50:54.500Z,69.2
2017-02-22T17:53:18.812Z,68.91
2017-02-22T17:55:42.577Z,69.1
2017-02-22T17:58:08.124Z,69.17
2017-02-22T18:00:31.576Z,69.01
2017-02-22T18:02:54.988Z,68.91
2017-02-22T18:05:18.351Z,68.53
2017-02-22T18:07:42.064Z,68.05
2017-02-22T18:10:12.166Z,69.2
2017-02-22T18:12:37.061Z,69.29
2017-02-22T18:15:01.093Z,69.1
2017-02-22T18:17:25.216Z,69.29
2017-02-22T18:19:57.023Z,69.01
2017-02-22T18:22:22.428Z,69.87
2017-02-22T18:24:45.303Z,69.39
2017-02-22T18:27:08.872Z,69.2
2017-02-22T18:29:33.725Z,69.87
2017-02-22T18:31:58.145Z,69.54
2017-02-22T18:34:25.073Z,69.48
2017-02-22T18:36:49.222Z,69.48
2017-02-22T18:39:12.717Z,69.29
2017-02-22T18:41:42.127Z,69.77
2017-02-22T18:44:05.696Z,68.91
2017-02-22T18:46:45.211Z,68.05
2017-02-22T18:49:10.449Z,68.91
2017-02-22T19:03:07.821Z,67.77
2017-02-22T19:05:32.439Z,67.77
2017-02-22T19:09:38.096Z,67.2
2017-02-22T19:12:08.092Z,67.77
2017-02-22T19:14:39.470Z,68.72
2017-02-22T19:17:03.926Z,68.82
2017-02-22T19:19:44.213Z,68.82
2017-02-22T19:22:11.095Z,69.39
2017-02-22T19:26:17.241Z,69.58
2017-02-22T19:28:54.677Z,69.96
2017-02-22T19:31:18.671Z,70.25
2017-02-22T19:33:43.503Z,70.15
2017-02-22T19:37:44.345Z,70.25
2017-02-22T19:40:24.410Z,69.96
2017-02-22T19:42:48.022Z,69.58
2017-02-22T19:45:16.871Z,69.87
2017-02-22T19:47:43.085Z,70.34
2017-02-22T19:50:07.705Z,70.82
2017-02-22T19:52:22.931Z,70.25
2017-02-22T19:55:26.884Z,70.15
2017-02-22T19:57:50.162Z,70.44
2017-02-22T20:00:13.801Z,70.25
2017-02-22T20:02:37.473Z,70.72
2017-02-22T20:05:01.533Z,70.53
2017-02-22T20:07:25.726Z,70.34
2017-02-22T20:09:50.855Z,69.58
2017-02-22T20:12:13.962Z,70.25
2017-02-22T20:14:37.555Z,70.53
2017-02-22T20:18:38.781Z,69.68
2017-02-22T20:21:03.094Z,69.1
2017-02-22T20:23:27.189Z,69.48
2017-02-22T20:25:51.057Z,69.48
2017-02-22T20:28:15.908Z,69.77
2017-02-22T20:30:39.647Z,70.63
2017-02-22T20:33:03.496Z,70.72
2017-02-22T20:35:26.959Z,70.44
2017-02-22T20:37:51.021Z,70.06
2017-02-22T20:40:17.079Z,70.44
2017-02-22T20:42:40.959Z,71.68
2017-02-22T20:45:05.652Z,71.96
2017-02-22T20:47:30.233Z,71.96
2017-02-22T20:49:53.782Z,73.55
2017-02-22T20:52:18.242Z,74.5
2017-02-22T20:54:42.446Z,73.74
2017-02-22T20:57:08.675Z,73.93
2017-02-22T20:59:26.171Z,73.74
2017-02-22T21:01:49.809Z,74.06
2017-02-22T21:04:13.401Z,74.4
2017-02-22T21:06:37.174Z,74.5
2017-02-22T21:09:01.621Z,73.93
2017-02-22T21:11:25.091Z,73.65
2017-02-22T21:13:48.841Z,73.11
2017-02-22T21:16:13.406Z,72.06
2017-02-22T21:18:36.819Z,72.44
2017-02-22T21:21:03.773Z,72.6
2017-02-22T21:23:27.432Z,72.31
2017-02-22T21:25:51.029Z,72.25
2017-02-22T21:28:14.613Z,72.88
2017-02-22T21:30:38.371Z,72.12
2017-02-22T21:32:49.070Z,72.5
2017-02-22T21:35:12.608Z,72.25
2017-02-22T21:37:36.102Z,72.21
2017-02-22T21:39:59.576Z,72.5
2017-02-22T21:42:22.992Z,72.5
2017-02-22T21:44:46.752Z,72.97
2017-02-22T21:47:11.341Z,72.5
2017-02-22T21:49:34.883Z,73.83
2017-02-22T21:51:59.807Z,74.02
2017-02-22T21:54:23.516Z,73.65
2017-02-22T21:56:47.065Z,74.98
2017-02-22T21:59:11.173Z,75.26
2017-02-22T22:01:34.606Z,74.88
2017-02-22T22:04:00.954Z,74.98
2017-02-22T22:06:11.441Z,75.64
2017-02-22T22:08:34.999Z,75.55
2017-02-22T22:10:58.519Z,76.12
2017-02-22T22:13:23.896Z,76.46
2017-02-22T22:15:26.181Z,76.21
2017-02-22T22:17:50.361Z,76.65
2017-02-22T22:20:13.662Z,76.46
2017-02-22T22:22:44.054Z,76.27
2017-02-22T22:25:07.582Z,76.21
2017-02-22T22:27:31.019Z,75.79
2017-02-22T22:29:54.472Z,76.56
2017-02-22T22:32:17.827Z,76.65
2017-02-22T22:34:41.336Z,75.7
2017-02-22T22:37:04.827Z,75.89
2017-02-22T22:39:29.481Z,75.42
2017-02-22T22:41:54.449Z,75.6
2017-02-22T22:44:18.426Z,74.84
2017-02-22T22:46:50.858Z,74.79
2017-02-22T22:53:38.956Z,73.83
2017-02-22T22:56:06.561Z,73.83
2017-02-22T22:58:31.433Z,73.83
2017-02-22T23:00:58.183Z,74.02
2017-02-22T23:04:12.432Z,73.65
2017-02-22T23:06:37.857Z,73.07
2017-02-22T23:09:01.804Z,73.22
2017-02-22T23:13:05.564Z,72.31
2017-02-22T23:15:30.926Z,72.02
2017-02-22T23:18:05.801Z,71.93
2017-02-22T23:20:31.698Z,72.12
2017-02-22T23:23:13.473Z,72.46
2017-02-22T23:25:51.635Z,72.21
2017-02-22T23:28:15.268Z,72.08
2017-02-22T23:30:55.139Z,72.02
2017-02-22T23:33:34.472Z,71.26
2017-02-22T23:36:00.643Z,70.97
2017-02-22T23:38:24.949Z,71.26
2017-02-22T23:40:49.634Z,70.88
2017-02-22T23:43:23.703Z,71.45
2017-02-22T23:45:50.266Z,71.45
2017-02-22T23:48:21.441Z,70.5
2017-02-22T23:50:46.842Z,71.32
2017-02-22T23:53:12.440Z,70.5
2017-02-22T23:55:35.914Z,70.88
2017-02-22T23:59:38.069Z,70.69
